Time;durP1;ratioP1;P1;durP2;ratioP2;P2;SDS_P1;SDS_P2;PMS_P1;PMS_P2;Temp;Humidity;BMP_temperature;BMP_pressure;BME280_temperature;BME280_humidity;BME280_pressure;Samples;Min_cycle;Max_cycle;Signal;HPM_P1;HPM_P2
2021/10/14 00:01:15;;;;;;;2.17;1.88;;;;;;;;;;5036017;28;20296;-42
2021/10/14 00:03:41;;;;;;;2.67;1.92;;;;;;;;;;5035862;28;20449;-42
2021/10/14 00:06:07;;;;;;;2.33;2.13;;;;;;;;;;5035812;28;20186;-42
2021/10/14 00:08:33;;;;;;;2.10;1.88;;;;;;;;;;5034219;28;20599;-42
2021/10/14 00:10:59;;;;;;;4.20;2.00;;;;;;;;;;5027680;28;20184;-42
2021/10/14 00:13:25;;;;;;;2.10;1.90;;;;;;;;;;5027715;28;20177;-42
2021/10/14 00:15:51;;;;;;;1.88;1.70;;;;;;;;;;5031686;28;20238;-42
2021/10/14 00:18:18;;;;;;;2.30;2.10;;;;;;;;;;5035719;28;20206;-42
2021/10/14 00:20:44;;;;;;;1.83;1.70;;;;;;;;;;5036377;28;20210;-42
2021/10/14 00:23:10;;;;;;;1.63;1.52;;;;;;;;;;5021469;28;20212;-42
2021/10/14 00:25:36;;;;;;;2.75;1.90;;;;;;;;;;5018313;28;20180;-42
2021/10/14 00:28:01;;;;;;;1.70;1.60;;;;;;;;;;5016840;28;20263;-42
2021/10/14 00:30:28;;;;;;;2.00;1.80;;;;;;;;;;5025492;28;20190;-42
2021/10/14 00:32:54;;;;;;;1.90;1.77;;;;;;;;;;5036337;28;20605;-42
2021/10/14 00:35:20;;;;;;;2.00;1.75;;;;;;;;;;5032932;28;20180;-42
2021/10/14 00:37:47;;;;;;;2.33;1.98;;;;;;;;;;5036886;28;20202;-42
2021/10/14 00:40:13;;;;;;;2.08;1.88;;;;;;;;;;5027437;28;20173;-42
2021/10/14 00:42:43;;;;;;;2.85;1.70;;;;;;;;;;5017105;28;20184;-42
2021/10/14 00:45:09;;;;;;;2.88;1.70;;;;;;;;;;5016491;28;20169;-42
2021/10/14 00:47:35;;;;;;;1.75;1.65;;;;;;;;;;5034686;28;20551;-42
2021/10/14 00:50:01;;;;;;;2.10;1.90;;;;;;;;;;5036108;28;20512;-42
2021/10/14 00:52:27;;;;;;;1.95;1.85;;;;;;;;;;5021746;28;20185;-42
2021/10/14 00:54:55;;;;;;;1.92;1.73;;;;;;;;;;5019699;28;20478;-42
2021/10/14 00:57:21;;;;;;;1.90;1.80;;;;;;;;;;5016860;28;20193;-42
2021/10/14 00:59:48;;;;;;;2.00;1.80;;;;;;;;;;5027173;28;20173;-42
2021/10/14 01:02:13;;;;;;;1.77;1.67;;;;;;;;;;5016616;28;20196;-42
2021/10/14 01:04:40;;;;;;;2.13;1.77;;;;;;;;;;5018491;28;20184;-42
2021/10/14 01:07:06;;;;;;;1.85;1.70;;;;;;;;;;5021101;28;20186;-42
2021/10/14 01:09:32;;;;;;;1.65;1.55;;;;;;;;;;5030689;28;20186;-42
2021/10/14 01:12:01;;;;;;;2.00;1.80;;;;;;;;;;5029150;28;20176;-42
2021/10/14 01:14:27;;;;;;;1.80;1.63;;;;;;;;;;5033197;28;20473;-42
2021/10/14 01:16:53;;;;;;;1.50;1.40;;;;;;;;;;5023446;28;20594;-42
2021/10/14 01:19:19;;;;;;;1.50;1.40;;;;;;;;;;5017235;28;20260;-42
2021/10/14 01:21:48;;;;;;;1.90;1.70;;;;;;;;;;5016487;28;20179;-42
2021/10/14 01:24:14;;;;;;;2.10;1.75;;;;;;;;;;5018177;28;20216;-42
2021/10/14 01:26:40;;;;;;;2.05;1.85;;;;;;;;;;5024887;28;20211;-42
2021/10/14 01:29:06;;;;;;;1.80;1.70;;;;;;;;;;5021074;28;20680;-42
2021/10/14 01:31:32;;;;;;;1.60;1.50;;;;;;;;;;5017024;28;20243;-42
2021/10/14 01:33:58;;;;;;;2.08;1.70;;;;;;;;;;5026885;28;20641;-42
2021/10/14 01:36:24;;;;;;;1.73;1.52;;;;;;;;;;5022935;28;20286;-42
2021/10/14 01:38:50;;;;;;;3.42;1.65;;;;;;;;;;5033481;28;20586;-42
2021/10/14 01:41:16;;;;;;;1.92;1.70;;;;;;;;;;5029659;28;20771;-42
2021/10/14 01:43:42;;;;;;;1.67;1.58;;;;;;;;;;5018504;28;20180;-42
2021/10/14 01:46:09;;;;;;;1.50;1.40;;;;;;;;;;5027607;28;20188;-42
2021/10/14 01:48:35;;;;;;;2.92;1.75;;;;;;;;;;5027065;28;20176;-42
2021/10/14 01:51:01;;;;;;;2.38;1.42;;;;;;;;;;5026860;28;20197;-42
2021/10/14 01:53:27;;;;;;;1.75;1.65;;;;;;;;;;5035190;28;20444;-42
2021/10/14 01:55:53;;;;;;;2.00;1.60;;;;;;;;;;5018759;28;20246;-42
2021/10/14 01:58:20;;;;;;;1.70;1.60;;;;;;;;;;5027381;28;20208;-42
2021/10/14 02:00:49;;;;;;;1.38;1.27;;;;;;;;;;5015292;28;20219;-42
2021/10/14 02:03:15;;;;;;;1.50;1.40;;;;;;;;;;5014956;28;20169;-42
2021/10/14 02:05:41;;;;;;;1.70;1.50;;;;;;;;;;5021302;28;20571;-42
2021/10/14 02:08:07;;;;;;;1.90;1.60;;;;;;;;;;5015320;28;20184;-42
2021/10/14 02:10:34;;;;;;;4.22;1.67;;;;;;;;;;5020222;28;20459;-42
2021/10/14 02:13:00;;;;;;;1.73;1.55;;;;;;;;;;5015273;28;20220;-42
2021/10/14 02:15:26;;;;;;;1.35;1.25;;;;;;;;;;5019686;28;20261;-42
2021/10/14 02:17:52;;;;;;;1.63;1.52;;;;;;;;;;5035253;28;20508;-42
2021/10/14 02:20:18;;;;;;;1.55;1.45;;;;;;;;;;5034917;28;20176;-42
2021/10/14 02:22:44;;;;;;;1.67;1.52;;;;;;;;;;5034887;28;20271;-42
2021/10/14 02:25:10;;;;;;;1.40;1.30;;;;;;;;;;5022841;28;20223;-42
2021/10/14 02:27:39;;;;;;;1.30;1.20;;;;;;;;;;5026267;28;20191;-42
2021/10/14 02:30:06;;;;;;;1.55;1.30;;;;;;;;;;5016260;28;20188;-42
2021/10/14 02:32:33;;;;;;;1.40;1.30;;;;;;;;;;5022763;28;20329;-42
2021/10/14 02:34:58;;;;;;;1.67;1.50;;;;;;;;;;5033656;28;20210;-42
2021/10/14 02:37:25;;;;;;;1.30;1.20;;;;;;;;;;5034077;28;20208;-42
2021/10/14 02:39:51;;;;;;;1.65;1.40;;;;;;;;;;5019095;28;20190;-42
2021/10/14 02:42:17;;;;;;;1.40;1.30;;;;;;;;;;5028988;28;20180;-42
2021/10/14 02:44:43;;;;;;;1.33;1.23;;;;;;;;;;5034075;28;20222;-42
2021/10/14 02:47:09;;;;;;;1.40;1.30;;;;;;;;;;5031616;28;20196;-42
2021/10/14 02:49:35;;;;;;;1.67;1.38;;;;;;;;;;5033492;28;20192;-42
2021/10/14 02:52:02;;;;;;;1.50;1.40;;;;;;;;;;5033446;28;20175;-42
2021/10/14 02:54:28;;;;;;;1.30;1.20;;;;;;;;;;5026426;28;20176;-42
2021/10/14 02:56:54;;;;;;;1.48;1.38;;;;;;;;;;5024538;28;20618;-42
2021/10/14 02:59:20;;;;;;;1.35;1.25;;;;;;;;;;5034056;28;20204;-42
2021/10/14 03:01:46;;;;;;;1.38;1.27;;;;;;;;;;5034453;28;20246;-42
2021/10/14 03:04:12;;;;;;;1.40;1.23;;;;;;;;;;5034415;28;20187;-42
2021/10/14 03:06:38;;;;;;;1.38;1.27;;;;;;;;;;5022443;28;20537;-42
2021/10/14 03:09:04;;;;;;;1.35;1.13;;;;;;;;;;5023984;28;20184;-42
2021/10/14 03:11:30;;;;;;;1.20;1.10;;;;;;;;;;5015864;28;20180;-42
2021/10/14 03:13:56;;;;;;;2.45;1.25;;;;;;;;;;5014036;28;20631;-42
2021/10/14 03:16:22;;;;;;;1.20;1.10;;;;;;;;;;5014881;28;20188;-42
2021/10/14 03:18:49;;;;;;;1.73;1.50;;;;;;;;;;5014923;28;20248;-42
2021/10/14 03:21:15;;;;;;;1.30;1.20;;;;;;;;;;5021188;28;20186;-42
2021/10/14 03:23:41;;;;;;;1.27;1.17;;;;;;;;;;5021486;28;20193;-42
2021/10/14 03:26:07;;;;;;;1.20;1.10;;;;;;;;;;5024473;28;20184;-42
2021/10/14 03:28:33;;;;;;;1.20;1.10;;;;;;;;;;5033262;28;20233;-42
2021/10/14 03:30:59;;;;;;;1.63;1.33;;;;;;;;;;5031944;28;20281;-42
2021/10/14 03:33:25;;;;;;;1.48;1.30;;;;;;;;;;5033106;28;20834;-42
2021/10/14 03:35:51;;;;;;;1.42;1.30;;;;;;;;;;5030876;28;20274;-42
2021/10/14 03:38:17;;;;;;;1.40;1.30;;;;;;;;;;5014816;28;20235;-42
2021/10/14 03:40:43;;;;;;;1.20;1.10;;;;;;;;;;5014501;28;20211;-42
2021/10/14 03:43:09;;;;;;;1.48;1.38;;;;;;;;;;5013846;28;20845;-42
2021/10/14 03:45:35;;;;;;;1.30;1.20;;;;;;;;;;5033165;28;20183;-42
2021/10/14 03:48:01;;;;;;;1.30;1.20;;;;;;;;;;5025470;28;20188;-42
2021/10/14 03:50:28;;;;;;;1.40;1.23;;;;;;;;;;5022471;28;20561;-42
2021/10/14 03:52:54;;;;;;;1.05;0.98;;;;;;;;;;5023247;28;20180;-42
2021/10/14 03:55:20;;;;;;;1.08;0.98;;;;;;;;;;5028278;28;20194;-42
2021/10/14 03:57:46;;;;;;;1.00;1.00;;;;;;;;;;5030696;28;20199;-42
2021/10/14 04:00:12;;;;;;;1.20;1.10;;;;;;;;;;5016563;28;20587;-42
2021/10/14 04:02:38;;;;;;;1.30;0.98;;;;;;;;;;5033448;28;20242;-42
2021/10/14 04:05:04;;;;;;;1.10;1.00;;;;;;;;;;5034565;28;20528;-42
2021/10/14 04:07:30;;;;;;;1.48;1.17;;;;;;;;;;5037621;28;20199;-42
2021/10/14 04:09:57;;;;;;;1.30;1.20;;;;;;;;;;5037042;28;20693;-42
2021/10/14 04:12:23;;;;;;;1.20;1.10;;;;;;;;;;5036868;28;20190;-42
2021/10/14 04:14:49;;;;;;;1.00;1.00;;;;;;;;;;5037018;28;20207;-42
2021/10/14 04:17:15;;;;;;;1.10;1.10;;;;;;;;;;5033538;28;20231;-42
2021/10/14 04:19:41;;;;;;;1.20;1.10;;;;;;;;;;5025820;28;20179;-42
2021/10/14 04:22:07;;;;;;;1.10;1.00;;;;;;;;;;5036964;28;20184;-43
2021/10/14 04:24:33;;;;;;;1.00;1.00;;;;;;;;;;5036560;28;20178;-42
2021/10/14 04:26:59;;;;;;;3.20;1.20;;;;;;;;;;5021664;28;20219;-42
2021/10/14 04:29:26;;;;;;;1.00;1.00;;;;;;;;;;5017619;28;20168;-42
2021/10/14 04:31:52;;;;;;;1.10;1.00;;;;;;;;;;5022819;28;20203;-42
2021/10/14 04:34:18;;;;;;;1.20;1.10;;;;;;;;;;5036478;28;20174;-42
2021/10/14 04:36:44;;;;;;;4.15;1.20;;;;;;;;;;5022596;28;20197;-42
2021/10/14 04:39:11;;;;;;;2.42;1.33;;;;;;;;;;5036810;28;20172;-42
2021/10/14 04:41:37;;;;;;;3.13;1.42;;;;;;;;;;5035055;28;20176;-42
2021/10/14 04:44:03;;;;;;;4.20;1.25;;;;;;;;;;5034941;28;20191;-42
2021/10/14 04:46:29;;;;;;;2.65;1.75;;;;;;;;;;5025877;28;20200;-42
2021/10/14 04:48:55;;;;;;;1.73;1.25;;;;;;;;;;5033393;28;20188;-43
2021/10/14 04:51:22;;;;;;;3.33;1.45;;;;;;;;;;5021586;28;20235;-42
2021/10/14 04:53:47;;;;;;;2.58;1.20;;;;;;;;;;5017553;28;20483;-42
2021/10/14 04:56:13;;;;;;;2.35;1.38;;;;;;;;;;5024621;28;20258;-42
2021/10/14 04:58:39;;;;;;;4.15;1.20;;;;;;;;;;5016946;28;20704;-42
2021/10/14 05:01:05;;;;;;;3.90;1.50;;;;;;;;;;5019995;28;20261;-42
2021/10/14 05:03:31;;;;;;;1.70;1.30;;;;;;;;;;5017326;28;20451;-42
2021/10/14 05:05:57;;;;;;;3.10;1.38;;;;;;;;;;5017653;28;20200;-42
2021/10/14 05:08:23;;;;;;;2.30;1.35;;;;;;;;;;5016657;28;20190;-42
2021/10/14 05:10:49;;;;;;;3.50;1.25;;;;;;;;;;5024633;28;20176;-42
2021/10/14 05:13:15;;;;;;;3.88;1.67;;;;;;;;;;5035644;28;20202;-42
2021/10/14 05:15:42;;;;;;;4.05;1.35;;;;;;;;;;5021920;28;20188;-42
2021/10/14 05:18:08;;;;;;;1.77;1.40;;;;;;;;;;5036083;28;20306;-42
2021/10/14 05:20:34;;;;;;;1.70;1.30;;;;;;;;;;5035639;28;20307;-42
2021/10/14 05:23:00;;;;;;;1.60;1.27;;;;;;;;;;5034714;28;20188;-42
2021/10/14 05:25:26;;;;;;;2.15;1.40;;;;;;;;;;5035421;28;20599;-42
2021/10/14 05:27:52;;;;;;;2.22;1.50;;;;;;;;;;5033429;28;20808;-42
2021/10/14 05:30:18;;;;;;;2.08;1.30;;;;;;;;;;5019969;28;20191;-42
2021/10/14 05:32:44;;;;;;;3.47;1.50;;;;;;;;;;5021604;28;20484;-42
2021/10/14 05:35:11;;;;;;;2.35;1.25;;;;;;;;;;5031991;28;20184;-42
2021/10/14 05:37:36;;;;;;;2.45;1.60;;;;;;;;;;5029147;28;20214;-42
2021/10/14 05:40:03;;;;;;;1.85;1.20;;;;;;;;;;5029224;28;20203;-42
2021/10/14 05:42:29;;;;;;;3.63;1.45;;;;;;;;;;5023290;28;20525;-42
2021/10/14 05:44:55;;;;;;;2.05;1.10;;;;;;;;;;5022604;28;20583;-42
2021/10/14 05:47:21;;;;;;;2.13;1.20;;;;;;;;;;5015966;28;20197;-42
2021/10/14 05:49:47;;;;;;;2.50;1.00;;;;;;;;;;5018895;28;20256;-42
2021/10/14 05:52:13;;;;;;;2.63;1.30;;;;;;;;;;5023600;28;20272;-42
2021/10/14 05:54:40;;;;;;;2.10;1.10;;;;;;;;;;5023710;28;20227;-42
2021/10/14 05:57:05;;;;;;;1.75;1.27;;;;;;;;;;5033877;28;20215;-41
2021/10/14 05:59:32;;;;;;;2.30;1.20;;;;;;;;;;5030890;28;20456;-41
2021/10/14 06:01:58;;;;;;;1.92;1.10;;;;;;;;;;5015512;28;20206;-41
2021/10/14 06:04:24;;;;;;;1.83;0.90;;;;;;;;;;5015172;28;20600;-41
2021/10/14 06:06:50;;;;;;;1.45;1.00;;;;;;;;;;5016526;28;20194;-41
2021/10/14 06:09:16;;;;;;;2.10;1.30;;;;;;;;;;5015414;28;20173;-41
2021/10/14 06:11:42;;;;;;;1.25;1.15;;;;;;;;;;5015698;28;20455;-41
2021/10/14 06:14:08;;;;;;;1.75;1.17;;;;;;;;;;5021227;28;20199;-41
2021/10/14 06:16:34;;;;;;;1.70;0.98;;;;;;;;;;5015287;28;20246;-41
2021/10/14 06:19:00;;;;;;;1.00;0.90;;;;;;;;;;5016438;28;20478;-41
2021/10/14 06:21:26;;;;;;;2.83;1.30;;;;;;;;;;5034112;28;20190;-41
2021/10/14 06:23:52;;;;;;;1.15;0.90;;;;;;;;;;5033353;28;20187;-41
2021/10/14 06:26:18;;;;;;;2.70;1.52;;;;;;;;;;5023885;28;20181;-41
2021/10/14 06:28:44;;;;;;;1.10;1.00;;;;;;;;;;5031796;28;20594;-41
2021/10/14 06:31:10;;;;;;;1.80;1.10;;;;;;;;;;5022118;28;20191;-41
2021/10/14 06:33:36;;;;;;;1.58;0.93;;;;;;;;;;5029823;28;20175;-41
2021/10/14 06:36:02;;;;;;;1.13;0.93;;;;;;;;;;5024703;28;20184;-41
2021/10/14 06:38:28;;;;;;;0.60;0.60;;;;;;;;;;5016991;28;20615;-41
2021/10/14 06:40:54;;;;;;;1.40;1.00;;;;;;;;;;5025814;28;20310;-42
2021/10/14 06:43:20;;;;;;;1.13;1.02;;;;;;;;;;5014795;28;20180;-42
2021/10/14 06:45:46;;;;;;;0.80;0.80;;;;;;;;;;5014909;28;20173;-42
2021/10/14 06:48:12;;;;;;;1.13;0.88;;;;;;;;;;5015311;28;20187;-41
2021/10/14 06:50:38;;;;;;;2.67;0.93;;;;;;;;;;5015716;28;20199;-42
2021/10/14 06:53:09;;;;;;;1.10;0.95;;;;;;;;;;5015221;28;20180;-41
2021/10/14 06:55:36;;;;;;;0.98;0.93;;;;;;;;;;5030196;28;20464;-41
2021/10/14 06:58:02;;;;;;;1.48;1.20;;;;;;;;;;5034527;28;20210;-41
2021/10/14 07:00:28;;;;;;;0.82;0.77;;;;;;;;;;5034397;28;20254;-41
2021/10/14 07:02:54;;;;;;;1.13;1.02;;;;;;;;;;5033080;28;20514;-41
2021/10/14 07:05:20;;;;;;;3.63;1.23;;;;;;;;;;5015213;28;20219;-41
2021/10/14 07:07:46;;;;;;;1.92;1.08;;;;;;;;;;5025308;28;20234;-41
2021/10/14 07:10:12;;;;;;;0.88;0.88;;;;;;;;;;5032085;28;20207;-41
2021/10/14 07:12:40;;;;;;;2.55;1.15;;;;;;;;;;5025924;28;20172;-41
2021/10/14 07:15:07;;;;;;;1.48;1.00;;;;;;;;;;5027430;28;20615;-41
2021/10/14 07:17:34;;;;;;;1.92;1.00;;;;;;;;;;5017780;28;20200;-42
2021/10/14 07:20:00;;;;;;;2.45;1.17;;;;;;;;;;5020570;28;20226;-42
2021/10/14 07:22:26;;;;;;;4.35;1.30;;;;;;;;;;5032873;28;20188;-41
2021/10/14 07:24:52;;;;;;;2.30;1.27;;;;;;;;;;5021282;28;20179;-41
2021/10/14 07:27:18;;;;;;;2.40;1.35;;;;;;;;;;5015885;28;20295;-41
2021/10/14 07:29:44;;;;;;;3.80;1.65;;;;;;;;;;5014770;28;20287;-41
2021/10/14 07:32:10;;;;;;;1.92;1.60;;;;;;;;;;5032147;28;20214;-41
2021/10/14 07:34:36;;;;;;;4.30;1.90;;;;;;;;;;5027335;28;20628;-41
2021/10/14 07:37:03;;;;;;;4.65;1.77;;;;;;;;;;5035220;28;20234;-41
2021/10/14 07:39:29;;;;;;;3.17;1.70;;;;;;;;;;5018491;28;20448;-41
2021/10/14 07:41:55;;;;;;;2.53;1.30;;;;;;;;;;5044024;28;20199;-42
2021/10/14 07:44:21;;;;;;;2.63;1.65;;;;;;;;;;5021193;28;20191;-41
2021/10/14 07:46:47;;;;;;;3.08;1.20;;;;;;;;;;5028600;28;20194;-41
2021/10/14 07:49:14;;;;;;;1.48;1.35;;;;;;;;;;5028363;28;20181;-41
2021/10/14 07:51:40;;;;;;;2.70;1.30;;;;;;;;;;5021738;28;20188;-42
2021/10/14 07:54:06;;;;;;;4.38;1.45;;;;;;;;;;5029786;28;20188;-41
2021/10/14 07:56:33;;;;;;;2.75;1.50;;;;;;;;;;5032730;28;20579;-42
2021/10/14 07:58:59;;;;;;;2.22;1.33;;;;;;;;;;5036913;28;20555;-41
2021/10/14 08:01:25;;;;;;;2.40;1.27;;;;;;;;;;5029176;28;20192;-41
2021/10/14 08:03:51;;;;;;;3.25;1.40;;;;;;;;;;5035339;28;20172;-42
2021/10/14 08:06:17;;;;;;;3.75;1.48;;;;;;;;;;5026514;28;20176;-41
2021/10/14 08:08:43;;;;;;;3.05;1.10;;;;;;;;;;5028466;28;20222;-41
2021/10/14 08:11:10;;;;;;;2.92;1.30;;;;;;;;;;5036491;28;20270;-41
2021/10/14 08:13:36;;;;;;;1.58;1.20;;;;;;;;;;5019131;28;20552;-42
2021/10/14 08:16:03;;;;;;;2.17;1.73;;;;;;;;;;5018973;28;20234;-41
2021/10/14 08:18:30;;;;;;;5.13;1.35;;;;;;;;;;5017685;28;20278;-41
2021/10/14 08:20:57;;;;;;;1.95;1.40;;;;;;;;;;5017806;28;20181;-41
2021/10/14 08:23:23;;;;;;;2.83;1.55;;;;;;;;;;5021712;28;20456;-41
2021/10/14 08:25:49;;;;;;;3.67;1.40;;;;;;;;;;5022374;28;20574;-41
2021/10/14 08:28:16;;;;;;;4.07;1.60;;;;;;;;;;5037340;28;20175;-41
2021/10/14 08:30:42;;;;;;;2.00;1.70;;;;;;;;;;5032062;28;20191;-42
2021/10/14 08:33:09;;;;;;;2.17;1.35;;;;;;;;;;5034512;28;20218;-41
2021/10/14 08:35:38;;;;;;;2.50;1.50;;;;;;;;;;5024005;28;20239;-42
2021/10/14 08:38:07;;;;;;;2.75;1.45;;;;;;;;;;5017449;28;20218;-41
2021/10/14 08:40:34;;;;;;;4.03;1.77;;;;;;;;;;5018889;28;20184;-41
2021/10/14 08:43:09;;;;;;;97.03;32.97;;;;;;;;;;5016552;28;20235;-41
2021/10/14 08:45:36;;;;;;;308.67;95.22;;;;;;;;;;5036101;28;20255;-41
2021/10/14 08:48:03;;;;;;;570.58;193.65;;;;;;;;;;5036481;28;20179;-41
2021/10/14 08:50:29;;;;;;;498.02;164.63;;;;;;;;;;5028518;28;20540;-41
2021/10/14 08:52:55;;;;;;;393.92;129.30;;;;;;;;;;5036527;28;20538;-41
2021/10/14 08:55:21;;;;;;;351.65;104.68;;;;;;;;;;5024798;28;20290;-41
2021/10/14 08:57:47;;;;;;;349.25;102.93;;;;;;;;;;5027228;28;20234;-41
2021/10/14 09:00:13;;;;;;;439.83;135.85;;;;;;;;;;5035284;28;20188;-41
2021/10/14 09:02:41;;;;;;;711.28;235.43;;;;;;;;;;5017829;28;20578;-41
2021/10/14 09:05:09;;;;;;;633.88;198.25;;;;;;;;;;5032163;28;20179;-41
2021/10/14 09:07:36;;;;;;;519.97;155.70;;;;;;;;;;5027356;28;20195;-42
2021/10/14 09:10:04;;;;;;;481.95;138.88;;;;;;;;;;5016429;28;20243;-41
2021/10/14 09:12:35;;;;;;;384.45;110.00;;;;;;;;;;5025134;28;20208;-41
2021/10/14 09:15:04;;;;;;;378.00;110.28;;;;;;;;;;5033881;28;20572;-41
2021/10/14 09:17:39;;;;;;;333.48;99.75;;;;;;;;;;5020012;28;20603;-41
2021/10/14 09:20:24;;;;;;;308.33;90.82;;;;;;;;;;5016492;28;20572;-41
2021/10/14 09:22:56;;;;;;;295.20;87.70;;;;;;;;;;5015902;28;20168;-41
2021/10/14 09:25:37;;;;;;;303.33;86.03;;;;;;;;;;5016402;28;20176;-41
2021/10/14 09:28:18;;;;;;;284.58;81.40;;;;;;;;;;5016346;28;20258;-41
2021/10/14 09:30:54;;;;;;;286.23;82.40;;;;;;;;;;5027523;28;20723;-41
2021/10/14 09:33:40;;;;;;;255.27;73.38;;;;;;;;;;5033091;28;20258;-42
2021/10/14 09:36:27;;;;;;;225.18;69.95;;;;;;;;;;5027921;28;20192;-42
2021/10/14 09:39:01;;;;;;;253.02;72.10;;;;;;;;;;5033763;28;20559;-41
2021/10/14 09:41:27;;;;;;;226.77;68.60;;;;;;;;;;5021481;28;20840;-41
2021/10/14 09:44:00;;;;;;;209.52;61.58;;;;;;;;;;5015778;28;20184;-42
2021/10/14 09:46:47;;;;;;;234.00;63.00;;;;;;;;;;5023122;28;20522;-43
2021/10/14 09:49:14;;;;;;;199.95;56.22;;;;;;;;;;5018096;28;20242;-41
2021/10/14 09:51:41;;;;;;;148.20;46.80;;;;;;;;;;5026327;28;20628;-42
2021/10/14 09:54:08;;;;;;;156.27;47.47;;;;;;;;;;5017098;28;20234;-41
2021/10/14 09:56:34;;;;;;;150.48;46.30;;;;;;;;;;5015375;28;20640;-42
2021/10/14 09:59:03;;;;;;;149.90;46.22;;;;;;;;;;5015487;28;20199;-41
2021/10/14 10:01:33;;;;;;;137.55;43.78;;;;;;;;;;5015261;28;20193;-41
2021/10/14 10:04:00;;;;;;;156.20;45.67;;;;;;;;;;5029522;28;20180;-41
2021/10/14 10:06:27;;;;;;;138.95;44.53;;;;;;;;;;5035049;28;20242;-41
2021/10/14 10:08:54;;;;;;;144.57;44.58;;;;;;;;;;5030369;28;20187;-41
2021/10/14 10:11:21;;;;;;;128.65;41.72;;;;;;;;;;5027118;28;20263;-41
2021/10/14 10:13:51;;;;;;;136.98;42.92;;;;;;;;;;5019384;28;20180;-42
2021/10/14 10:16:18;;;;;;;138.07;41.83;;;;;;;;;;5015460;28;20189;-41
2021/10/14 10:18:44;;;;;;;128.48;42.65;;;;;;;;;;5015427;28;20444;-41
2021/10/14 10:21:30;;;;;;;127.80;40.13;;;;;;;;;;5020449;28;20188;-41
2021/10/14 10:24:00;;;;;;;111.32;37.63;;;;;;;;;;5028306;28;20183;-41
2021/10/14 10:26:35;;;;;;;98.78;35.35;;;;;;;;;;5034055;28;20599;-42
2021/10/14 10:29:13;;;;;;;116.85;36.55;;;;;;;;;;5019141;28;20190;-42
2021/10/14 10:31:48;;;;;;;108.70;36.47;;;;;;;;;;5029244;28;20183;-42
2021/10/14 10:34:30;;;;;;;104.68;36.75;;;;;;;;;;5029034;28;20571;-42
2021/10/14 10:36:56;;;;;;;102.15;34.58;;;;;;;;;;5023622;28;20203;-42
2021/10/14 10:39:41;;;;;;;86.40;31.77;;;;;;;;;;5016246;28;20455;-41
2021/10/14 10:42:24;;;;;;;96.53;33.60;;;;;;;;;;5015005;28;20706;-41
2021/10/14 10:44:50;;;;;;;108.53;33.75;;;;;;;;;;5014780;28;20181;-42
2021/10/14 10:47:35;;;;;;;85.63;30.83;;;;;;;;;;5016279;28;20545;-42
2021/10/14 10:50:02;;;;;;;100.97;33.88;;;;;;;;;;5014915;28;20211;-42
2021/10/14 10:52:32;;;;;;;86.72;31.15;;;;;;;;;;5028743;28;20181;-42
2021/10/14 10:55:01;;;;;;;94.05;31.38;;;;;;;;;;5025360;28;20203;-42
2021/10/14 10:57:45;;;;;;;86.00;30.48;;;;;;;;;;5034435;28;20198;-41
2021/10/14 11:00:12;;;;;;;68.55;28.15;;;;;;;;;;5033580;28;20180;-42
2021/10/14 11:02:38;;;;;;;79.78;29.30;;;;;;;;;;5015332;28;20212;-42
2021/10/14 11:05:04;;;;;;;87.82;28.67;;;;;;;;;;5016689;28;20176;-41
2021/10/14 11:07:30;;;;;;;70.05;26.67;;;;;;;;;;5021989;28;20262;-42
2021/10/14 11:09:56;;;;;;;79.82;28.58;;;;;;;;;;5022131;28;20184;-42
2021/10/14 11:12:22;;;;;;;72.20;26.13;;;;;;;;;;5019468;28;20180;-42
2021/10/14 11:14:49;;;;;;;68.32;26.10;;;;;;;;;;5027287;28;20194;-42
2021/10/14 11:17:16;;;;;;;68.55;23.75;;;;;;;;;;5036551;28;20195;-42
2021/10/14 11:19:42;;;;;;;80.43;27.50;;;;;;;;;;5034124;28;20610;-42
2021/10/14 11:22:18;;;;;;;69.80;24.95;;;;;;;;;;5037342;28;20234;-42
2021/10/14 11:24:44;;;;;;;180.57;59.05;;;;;;;;;;5028663;28;20248;-42
2021/10/14 11:27:14;;;;;;;438.67;217.43;;;;;;;;;;5034352;28;20187;-42
2021/10/14 11:29:41;;;;;;;386.85;188.80;;;;;;;;;;5036418;28;20171;-42
2021/10/14 11:32:11;;;;;;;323.30;141.43;;;;;;;;;;5023564;28;20187;-42
2021/10/14 11:34:37;;;;;;;254.90;118.43;;;;;;;;;;5034767;28;20179;-42
2021/10/14 11:37:13;;;;;;;199.57;93.22;;;;;;;;;;5029047;28;20204;-42
2021/10/14 11:39:43;;;;;;;195.00;86.97;;;;;;;;;;5031665;28;20219;-42
2021/10/14 11:42:10;;;;;;;197.35;91.68;;;;;;;;;;5019162;28;20260;-42
2021/10/14 11:44:40;;;;;;;192.13;89.38;;;;;;;;;;5017025;28;20183;-42
2021/10/14 11:47:08;;;;;;;166.35;83.22;;;;;;;;;;5029877;28;20180;-42
2021/10/14 11:49:35;;;;;;;186.35;85.85;;;;;;;;;;5020904;28;20180;-42
2021/10/14 11:52:01;;;;;;;172.27;81.65;;;;;;;;;;5030202;28;20184;-42
2021/10/14 11:54:29;;;;;;;155.82;75.80;;;;;;;;;;5018965;28;20191;-41
2021/10/14 11:56:56;;;;;;;164.43;74.90;;;;;;;;;;5030040;28;20474;-41
2021/10/14 11:59:23;;;;;;;158.95;71.50;;;;;;;;;;5035667;28;20180;-41
2021/10/14 12:01:50;;;;;;;145.73;68.15;;;;;;;;;;5024542;28;20266;-41
2021/10/14 12:04:17;;;;;;;134.30;66.90;;;;;;;;;;5024092;28;20524;-41
2021/10/14 12:06:44;;;;;;;137.35;69.28;;;;;;;;;;5018838;28;20186;-42
2021/10/14 12:09:13;;;;;;;128.05;65.60;;;;;;;;;;5017805;28;20193;-42
2021/10/14 12:11:39;;;;;;;124.85;61.78;;;;;;;;;;5029611;28;20179;-42
2021/10/14 12:14:06;;;;;;;144.50;65.00;;;;;;;;;;5030914;28;20575;-42
2021/10/14 12:16:33;;;;;;;116.32;56.47;;;;;;;;;;5028937;28;20191;-42
2021/10/14 12:19:12;;;;;;;130.35;61.00;;;;;;;;;;5017610;28;20184;-42
2021/10/14 12:21:39;;;;;;;127.20;58.78;;;;;;;;;;5021238;28;20567;-42
2021/10/14 12:24:36;;;;;;;121.55;56.38;;;;;;;;;;5028104;28;20180;-42
2021/10/14 12:27:03;;;;;;;122.53;56.97;;;;;;;;;;5030934;28;20279;-42
2021/10/14 12:29:30;;;;;;;108.25;53.97;;;;;;;;;;5017703;28;20437;-42
2021/10/14 12:32:04;;;;;;;116.18;53.85;;;;;;;;;;5020258;28;20206;-42
2021/10/14 12:34:42;;;;;;;112.10;54.45;;;;;;;;;;5031349;28;20180;-42
2021/10/14 12:37:08;;;;;;;112.97;53.90;;;;;;;;;;5017219;28;20196;-42
2021/10/14 12:39:34;;;;;;;101.15;49.35;;;;;;;;;;5017538;28;20440;-42
2021/10/14 12:42:01;;;;;;;102.15;50.55;;;;;;;;;;5018275;28;20180;-42
2021/10/14 12:44:48;;;;;;;91.40;48.22;;;;;;;;;;5024809;28;20183;-42
2021/10/14 12:47:20;;;;;;;90.60;45.42;;;;;;;;;;5036263;28;20523;-42
2021/10/14 12:50:13;;;;;;;97.03;49.13;;;;;;;;;;5034125;28;20456;-42
2021/10/14 12:52:39;;;;;;;101.10;48.55;;;;;;;;;;5036852;28;20168;-42
2021/10/14 12:55:06;;;;;;;98.38;48.88;;;;;;;;;;5025411;28;20351;-42
2021/10/14 12:57:32;;;;;;;84.35;44.15;;;;;;;;;;5031632;28;20279;-42
2021/10/14 12:59:58;;;;;;;93.07;45.65;;;;;;;;;;5021405;28;20179;-42
2021/10/14 13:02:24;;;;;;;78.95;42.10;;;;;;;;;;5030476;28;20203;-42
2021/10/14 13:04:50;;;;;;;76.13;42.50;;;;;;;;;;5016279;28;20180;-42
2021/10/14 13:07:16;;;;;;;76.05;41.53;;;;;;;;;;5027122;28;20187;-42
2021/10/14 13:09:42;;;;;;;70.78;38.83;;;;;;;;;;5029007;28;20176;-42
2021/10/14 13:12:09;;;;;;;73.75;38.47;;;;;;;;;;5016627;28;20182;-42
2021/10/14 13:14:38;;;;;;;77.80;40.38;;;;;;;;;;5028952;28;20682;-42
2021/10/14 13:17:05;;;;;;;72.47;39.85;;;;;;;;;;5020227;28;20572;-42
2021/10/14 13:19:31;;;;;;;80.80;39.60;;;;;;;;;;5016710;28;20169;-42
2021/10/14 13:21:57;;;;;;;78.15;39.70;;;;;;;;;;5018842;28;20188;-42
2021/10/14 13:24:23;;;;;;;72.75;38.65;;;;;;;;;;5016056;28;20164;-42
2021/10/14 13:26:50;;;;;;;72.82;39.28;;;;;;;;;;5033199;28;20547;-42
2021/10/14 13:29:16;;;;;;;66.75;36.50;;;;;;;;;;5036301;28;20202;-42
2021/10/14 13:31:43;;;;;;;67.57;37.25;;;;;;;;;;5035906;28;20559;-42
2021/10/14 13:34:12;;;;;;;67.63;35.95;;;;;;;;;;5030139;28;20184;-42
2021/10/14 13:36:38;;;;;;;60.83;34.03;;;;;;;;;;5027675;28;20176;-42
2021/10/14 13:39:04;;;;;;;66.32;35.42;;;;;;;;;;5034119;28;20472;-42
2021/10/14 13:41:31;;;;;;;61.67;33.67;;;;;;;;;;5027429;28;20501;-42
2021/10/14 13:44:08;;;;;;;55.38;32.78;;;;;;;;;;5017089;28;20181;-42
2021/10/14 13:46:35;;;;;;;62.63;32.45;;;;;;;;;;5019694;28;20507;-42
2021/10/14 13:49:01;;;;;;;62.40;34.08;;;;;;;;;;5035973;28;20172;-42
2021/10/14 13:51:30;;;;;;;60.00;32.75;;;;;;;;;;5035040;28;20229;-42
2021/10/14 13:53:56;;;;;;;50.88;29.58;;;;;;;;;;5035270;28;20171;-42
2021/10/14 13:56:22;;;;;;;55.10;31.27;;;;;;;;;;5026165;28;20747;-42
2021/10/14 13:58:48;;;;;;;52.00;28.50;;;;;;;;;;5021653;28;20199;-42
2021/10/14 14:01:16;;;;;;;57.55;31.65;;;;;;;;;;5020159;28;20192;-42
2021/10/14 14:03:43;;;;;;;50.22;30.17;;;;;;;;;;5020499;28;20552;-42
2021/10/14 14:06:09;;;;;;;51.17;27.63;;;;;;;;;;5015791;28;20183;-42
2021/10/14 14:08:35;;;;;;;48.38;28.48;;;;;;;;;;5026997;28;20556;-42
2021/10/14 14:11:01;;;;;;;47.63;27.23;;;;;;;;;;5021625;28;20199;-42
2021/10/14 14:13:27;;;;;;;50.70;27.05;;;;;;;;;;5018537;28;20553;-42
2021/10/14 14:15:53;;;;;;;44.33;26.48;;;;;;;;;;5028625;28;20234;-42
2021/10/14 14:18:19;;;;;;;46.75;27.85;;;;;;;;;;5021560;28;20196;-42
2021/10/14 14:20:45;;;;;;;40.20;25.05;;;;;;;;;;5024919;28;20226;-42
2021/10/14 14:23:12;;;;;;;43.75;25.70;;;;;;;;;;5033177;28;20513;-42
2021/10/14 14:25:39;;;;;;;44.92;25.25;;;;;;;;;;5028433;28;20245;-42
2021/10/14 14:28:05;;;;;;;40.25;24.50;;;;;;;;;;5032918;28;20184;-42
2021/10/14 14:30:31;;;;;;;51.35;25.75;;;;;;;;;;5023303;28;20183;-42